createdAt,value
2022-09-14T00:01:28.894Z,99250.03
2022-09-14T00:03:58.502Z,99252.69
2022-09-14T00:06:26.244Z,99259.41
2022-09-14T00:08:55.294Z,99249.56
2022-09-14T00:11:24.021Z,99251.72
2022-09-14T00:13:51.532Z,99233.84
2022-09-14T00:16:21.940Z,99236.41
2022-09-14T00:18:57.582Z,99243.00
2022-09-14T00:21:24.989Z,99236.78
2022-09-14T00:23:51.766Z,99217.25
2022-09-14T00:26:21.636Z,99244.75
2022-09-14T00:28:51.920Z,99249.13
2022-09-14T00:31:20.189Z,99245.13
2022-09-14T00:33:48.578Z,99232.16
2022-09-14T00:36:27.265Z,99220.75
2022-09-14T00:38:56.832Z,99233.81
2022-09-14T00:41:27.597Z,99237.47
2022-09-14T00:44:13.065Z,99253.53
2022-09-14T00:46:48.371Z,99243.22
2022-09-14T00:49:30.198Z,99249.63
2022-09-14T00:52:04.106Z,99243.06
2022-09-14T00:54:31.571Z,99244.03
2022-09-14T00:57:01.647Z,99245.81
2022-09-14T00:59:31.749Z,99238.09
2022-09-14T01:01:58.903Z,99236.78
2022-09-14T01:04:26.380Z,99260.06
2022-09-14T01:07:03.476Z,99248.09
2022-09-14T01:09:44.431Z,99252.13
2022-09-14T01:12:30.339Z,99262.34
2022-09-14T01:15:46.322Z,99237.19
2022-09-14T01:18:20.713Z,99247.78
2022-09-14T01:20:50.726Z,99254.91
2022-09-14T01:23:47.895Z,99225.97
2022-09-14T01:26:26.515Z,99238.78
2022-09-14T01:29:13.845Z,99216.47
2022-09-14T01:31:48.196Z,99230.50
2022-09-14T01:34:55.365Z,99236.63
2022-09-14T01:37:31.505Z,99235.50
2022-09-14T01:40:11.703Z,99228.94
2022-09-14T01:42:42.584Z,99228.22
2022-09-14T01:45:13.489Z,99238.84
2022-09-14T01:47:47.408Z,99238.91
2022-09-14T01:50:26.306Z,99204.06
2022-09-14T01:52:59.703Z,99220.97
2022-09-14T01:55:33.369Z,99235.72
2022-09-14T01:58:08.430Z,99216.22
2022-09-14T02:00:40.025Z,99205.69
2022-09-14T02:03:29.691Z,99221.03
2022-09-14T02:06:06.661Z,99217.78
2022-09-14T02:08:34.517Z,99237.00
2022-09-14T02:11:02.109Z,99240.72
2022-09-14T02:13:29.533Z,99238.16
2022-09-14T02:15:56.399Z,99247.47
2022-09-14T02:18:23.167Z,99235.38
2022-09-14T02:21:00.561Z,99217.78
2022-09-14T02:23:27.865Z,99227.50
2022-09-14T02:25:54.935Z,99231.09
2022-09-14T02:28:22.299Z,99231.50
2022-09-14T02:31:27.637Z,99217.94
2022-09-14T02:34:06.258Z,99220.75
2022-09-14T02:36:48.309Z,99223.84
2022-09-14T02:39:22.655Z,99221.97
2022-09-14T02:41:57.040Z,99222.56
2022-09-14T02:44:39.227Z,99235.22
2022-09-14T02:47:37.750Z,99225.09
2022-09-14T02:50:21.190Z,99223.53
2022-09-14T02:53:06.394Z,99217.47
2022-09-14T02:55:37.816Z,99205.19
2022-09-14T02:58:09.868Z,99216.31
2022-09-14T03:00:41.178Z,99213.31
2022-09-14T03:03:10.728Z,99218.22
2022-09-14T03:05:38.063Z,99219.81
2022-09-14T03:08:05.124Z,99229.56
2022-09-14T03:10:32.684Z,99210.94
2022-09-14T03:12:59.455Z,99219.13
2022-09-14T03:15:27.434Z,99208.28
2022-09-14T03:17:54.469Z,99223.47
2022-09-14T03:20:26.917Z,99207.59
2022-09-14T03:22:54.160Z,99222.63
2022-09-14T03:25:23.241Z,99220.94
2022-09-14T03:27:51.237Z,99214.06
2022-09-14T03:30:19.519Z,99206.25
2022-09-14T03:32:46.514Z,99220.81
2022-09-14T03:35:13.970Z,99218.88
2022-09-14T03:37:42.502Z,99217.94
2022-09-14T03:40:11.827Z,99183.78
2022-09-14T03:42:44.217Z,99194.44
2022-09-14T03:45:12.354Z,99179.44
2022-09-14T03:47:39.852Z,99211.56
2022-09-14T03:50:08.582Z,99213.75
2022-09-14T03:52:36.684Z,99220.94
2022-09-14T03:55:05.484Z,99204.91
2022-09-14T03:57:33.067Z,99220.31
2022-09-14T03:59:59.826Z,99214.03
2022-09-14T04:02:29.399Z,99213.47
2022-09-14T04:04:56.230Z,99235.28
2022-09-14T04:07:23.015Z,99231.72
2022-09-14T04:09:49.776Z,99216.00
2022-09-14T04:12:16.658Z,99226.25
2022-09-14T04:14:43.382Z,99233.63
2022-09-14T04:17:10.077Z,99217.09
2022-09-14T04:19:38.304Z,99203.69
2022-09-14T04:22:05.482Z,99232.28
2022-09-14T04:24:32.289Z,99216.34
2022-09-14T04:26:59.181Z,99223.34
2022-09-14T04:29:26.126Z,99233.25
2022-09-14T04:31:52.875Z,99237.66
2022-09-14T04:34:19.696Z,99220.94
2022-09-14T04:36:46.513Z,99246.09
2022-09-14T04:39:14.037Z,99222.75
2022-09-14T04:41:41.312Z,99227.47
2022-09-14T04:44:08.012Z,99226.72
2022-09-14T04:46:40.068Z,99221.81
2022-09-14T04:49:10.441Z,99232.63
2022-09-14T04:51:37.916Z,99231.84
2022-09-14T04:54:07.177Z,99229.19
2022-09-14T04:56:35.950Z,99226.19
2022-09-14T04:59:04.566Z,99241.47
2022-09-14T05:01:37.257Z,99235.44
2022-09-14T05:04:05.272Z,99238.13
2022-09-14T05:06:35.281Z,99233.50
2022-09-14T05:09:03.986Z,99215.50
2022-09-14T05:11:33.085Z,99228.44
2022-09-14T05:14:01.144Z,99232.50
2022-09-14T05:16:30.694Z,99228.03
2022-09-14T05:19:01.367Z,99227.72
2022-09-14T05:21:29.802Z,99226.63
2022-09-14T05:23:58.868Z,99223.31
2022-09-14T05:26:27.384Z,99203.56
2022-09-14T05:28:56.426Z,99222.78
2022-09-14T05:31:24.916Z,99234.78
2022-09-14T05:33:52.976Z,99230.31
2022-09-14T05:36:20.039Z,99248.81
2022-09-14T05:38:47.076Z,99235.00
2022-09-14T05:41:15.769Z,99244.47
2022-09-14T05:43:43.477Z,99243.06
2022-09-14T05:46:12.588Z,99216.22
2022-09-14T05:48:40.026Z,99250.28
2022-09-14T05:51:14.142Z,99256.38
2022-09-14T05:53:41.147Z,99259.88
2022-09-14T05:56:10.500Z,99254.38
2022-09-14T05:58:38.910Z,99265.03
2022-09-14T06:01:16.014Z,99274.22
2022-09-14T06:03:44.086Z,99246.13
2022-09-14T06:06:12.703Z,99271.03
2022-09-14T06:08:39.817Z,99269.28
2022-09-14T06:11:15.257Z,99269.66
2022-09-14T06:13:42.341Z,99276.44
2022-09-14T06:16:11.971Z,99280.91
2022-09-14T06:18:40.137Z,99263.69
2022-09-14T06:21:08.246Z,99280.09
2022-09-14T06:23:35.554Z,99281.38
2022-09-14T06:26:04.656Z,99305.81
2022-09-14T06:28:32.273Z,99293.75
2022-09-14T06:30:59.345Z,99296.75
2022-09-14T06:33:26.226Z,99284.69
2022-09-14T06:36:00.247Z,99281.94
2022-09-14T06:38:28.679Z,99296.56
2022-09-14T06:41:00.437Z,99274.06
2022-09-14T06:43:32.113Z,99326.75
2022-09-14T06:46:01.498Z,99307.94
2022-09-14T06:48:31.070Z,99300.88
2022-09-14T06:50:58.543Z,99299.38
2022-09-14T06:53:25.836Z,99312.31
2022-09-14T06:55:52.861Z,99313.78
2022-09-14T06:58:19.733Z,99297.00
2022-09-14T07:00:46.476Z,99301.16
2022-09-14T07:03:13.226Z,99304.00
2022-09-14T07:05:40.095Z,99314.00
2022-09-14T07:08:11.450Z,99311.25
2022-09-14T07:10:38.923Z,99298.91
2022-09-14T07:13:05.768Z,99317.72
2022-09-14T07:15:33.457Z,99300.44
2022-09-14T07:18:00.309Z,99322.03
2022-09-14T07:20:27.242Z,99313.84
2022-09-14T07:22:53.945Z,99319.69
2022-09-14T07:25:20.683Z,99339.91
2022-09-14T07:27:47.724Z,99326.09
2022-09-14T07:30:14.635Z,99333.66
2022-09-14T07:32:41.388Z,99347.28
2022-09-14T07:35:08.844Z,99327.16
2022-09-14T07:37:35.759Z,99333.56
2022-09-14T07:40:02.694Z,99326.84
2022-09-14T07:42:29.620Z,99344.22
2022-09-14T07:44:56.452Z,99343.63
2022-09-14T07:47:23.144Z,99349.41
2022-09-14T07:49:50.013Z,99345.50
2022-09-14T07:52:16.725Z,99340.47
2022-09-14T07:54:43.476Z,99349.50
2022-09-14T07:57:10.336Z,99357.06
2022-09-14T07:59:37.592Z,99356.63
2022-09-14T08:02:09.061Z,99355.44
2022-09-14T08:04:36.445Z,99338.50
2022-09-14T08:07:03.923Z,99350.66
2022-09-14T08:09:30.825Z,99359.41
2022-09-14T08:11:58.313Z,99360.94
2022-09-14T08:14:25.541Z,99386.66
2022-09-14T08:16:52.520Z,99375.81
2022-09-14T08:19:21.179Z,99368.00
2022-09-14T08:21:48.289Z,99376.56
2022-09-14T08:24:17.715Z,99381.50
2022-09-14T08:26:44.870Z,99388.16
2022-09-14T08:29:18.933Z,99393.97
2022-09-14T08:31:47.297Z,99394.25
2022-09-14T08:34:15.825Z,99389.78
2022-09-14T08:36:44.115Z,99397.16
2022-09-14T08:39:13.619Z,99380.84
2022-09-14T08:41:49.969Z,99395.53
2022-09-14T08:44:24.917Z,99407.03
2022-09-14T08:47:07.428Z,99404.56
2022-09-14T08:49:47.936Z,99412.34
2022-09-14T08:52:40.904Z,99421.25
2022-09-14T08:55:17.971Z,99418.50
2022-09-14T08:57:54.129Z,99427.97
2022-09-14T09:00:30.319Z,99427.22
2022-09-14T09:03:12.695Z,99421.00
2022-09-14T09:05:47.591Z,99420.84
2022-09-14T09:08:30.433Z,99428.50
2022-09-14T09:11:00.791Z,99440.22
2022-09-14T09:13:33.639Z,99442.31
2022-09-14T09:16:05.059Z,99441.84
2022-09-14T09:18:51.858Z,99434.38
2022-09-14T09:21:25.497Z,99446.53
2022-09-14T09:23:56.090Z,99457.50
2022-09-14T09:26:29.003Z,99453.03
2022-09-14T09:28:59.654Z,99431.31
2022-09-14T09:31:32.907Z,99451.47
2022-09-14T09:34:00.971Z,99463.41
2022-09-14T09:36:36.692Z,99451.53
2022-09-14T09:39:05.493Z,99464.25
2022-09-14T09:41:44.837Z,99487.00
2022-09-14T09:44:11.973Z,99481.25
2022-09-14T09:46:54.120Z,99483.19
2022-09-14T09:49:25.867Z,99491.84
2022-09-14T09:51:54.185Z,99476.59
2022-09-14T09:54:21.089Z,99503.59
2022-09-14T09:57:03.225Z,99478.19
2022-09-14T09:59:35.913Z,99495.06
2022-09-14T10:02:24.702Z,99495.06
2022-09-14T10:05:00.841Z,99492.00
2022-09-14T10:07:29.899Z,99483.13
2022-09-14T10:10:16.617Z,99494.94
2022-09-14T10:12:55.693Z,99508.16
2022-09-14T10:15:30.910Z,99516.50
2022-09-14T10:18:12.804Z,99506.94
2022-09-14T10:20:43.294Z,99495.44
2022-09-14T10:23:31.577Z,99513.31
2022-09-14T10:26:13.476Z,99519.78
2022-09-14T10:28:48.877Z,99515.75
2022-09-14T10:31:16.076Z,99529.41
2022-09-14T10:33:43.065Z,99519.81
2022-09-14T10:36:29.506Z,99529.78
2022-09-14T10:39:26.268Z,99521.72
2022-09-14T10:42:14.561Z,99532.75
2022-09-14T10:45:10.008Z,99529.34
2022-09-14T10:48:07.482Z,99528.81
2022-09-14T10:51:06.273Z,99524.84
2022-09-14T10:53:42.129Z,99527.13
2022-09-14T10:56:17.317Z,99527.44
2022-09-14T10:59:21.604Z,99542.91
2022-09-14T11:02:13.310Z,99533.47
2022-09-14T11:05:04.990Z,99535.56
2022-09-14T11:07:37.535Z,99538.69
2022-09-14T11:10:22.768Z,99538.31
2022-09-14T11:12:49.426Z,99550.50
2022-09-14T11:15:20.859Z,99538.16
2022-09-14T11:18:12.239Z,99544.56
2022-09-14T11:20:52.837Z,99551.69
2022-09-14T11:23:48.288Z,99547.53
2022-09-14T11:26:22.589Z,99552.22
2022-09-14T11:28:56.129Z,99529.69
2022-09-14T11:31:33.347Z,99553.09
2022-09-14T11:34:33.398Z,99557.59
2022-09-14T11:37:06.991Z,99555.19
2022-09-14T11:40:03.388Z,99556.47
2022-09-14T11:42:44.770Z,99552.44
2022-09-14T11:45:23.748Z,99515.38
2022-09-14T11:47:59.775Z,99560.88
2022-09-14T11:50:30.780Z,99541.41
2022-09-14T11:53:24.449Z,99553.13
2022-09-14T11:55:51.532Z,99545.69
2022-09-14T11:58:21.940Z,99567.44
2022-09-14T12:01:26.994Z,99564.88
2022-09-14T12:04:15.033Z,99561.19
2022-09-14T12:06:54.836Z,99562.25
2022-09-14T12:09:21.502Z,99571.00
2022-09-14T12:11:49.720Z,99566.50
2022-09-14T12:14:29.037Z,99568.13
2022-09-14T12:17:38.438Z,99579.59
2022-09-14T12:20:30.608Z,99579.13
2022-09-14T12:23:27.108Z,99575.38
2022-09-14T12:25:53.853Z,99582.84
2022-09-14T12:28:35.402Z,99577.28
2022-09-14T12:31:05.260Z,99592.94
2022-09-14T12:33:32.314Z,99592.22
2022-09-14T12:36:06.033Z,99574.66
2022-09-14T12:38:38.634Z,99581.91
2022-09-14T12:41:08.430Z,99581.84
2022-09-14T12:43:35.437Z,99602.69
2022-09-14T12:46:20.316Z,99588.88
2022-09-14T12:48:51.196Z,99599.41
2022-09-14T12:51:27.093Z,99589.75
2022-09-14T12:54:09.219Z,99589.03
2022-09-14T12:56:42.813Z,99596.38
2022-09-14T12:59:18.159Z,99591.03
2022-09-14T13:02:14.637Z,99596.97
2022-09-14T13:04:42.395Z,99587.06
2022-09-14T13:07:19.810Z,99587.31
2022-09-14T13:09:52.619Z,99597.47
2022-09-14T13:12:30.285Z,99599.53
2022-09-14T13:15:01.092Z,99589.69
2022-09-14T13:17:28.252Z,99593.34
2022-09-14T13:19:57.136Z,99581.47
2022-09-14T13:22:26.709Z,99583.09
2022-09-14T13:24:54.106Z,99585.00
2022-09-14T13:27:31.570Z,99596.53
2022-09-14T13:30:24.262Z,99589.19
2022-09-14T13:32:54.745Z,99583.53
2022-09-14T13:35:27.235Z,99590.13
2022-09-14T13:37:54.458Z,99595.91
2022-09-14T13:40:28.630Z,99587.72
2022-09-14T13:42:56.914Z,99596.72
2022-09-14T13:45:24.799Z,99589.41
2022-09-14T13:47:53.605Z,99579.97
2022-09-14T13:50:24.258Z,99577.13
2022-09-14T13:53:02.076Z,99575.47
2022-09-14T13:55:43.106Z,99604.09
2022-09-14T13:58:09.863Z,99593.88
2022-09-14T14:00:55.617Z,99575.47
2022-09-14T14:03:37.039Z,99601.25
2022-09-14T14:06:27.277Z,99578.31
2022-09-14T14:08:59.089Z,99597.09
2022-09-14T14:11:33.557Z,99604.88
2022-09-14T14:14:13.856Z,99603.19
2022-09-14T14:16:41.330Z,99591.72
2022-09-14T14:19:28.042Z,99605.59
2022-09-14T14:22:15.377Z,99574.88
2022-09-14T14:25:09.235Z,99600.69
2022-09-14T14:27:33.648Z,99582.63
2022-09-14T14:30:02.336Z,99602.28
2022-09-14T14:32:29.450Z,99594.84
2022-09-14T14:34:56.309Z,99616.50
2022-09-14T14:37:23.261Z,99616.09
2022-09-14T14:39:50.332Z,99609.56
2022-09-14T14:42:18.202Z,99601.91
2022-09-14T14:44:45.421Z,99611.34
2022-09-14T14:47:16.103Z,99593.31
2022-09-14T14:49:42.928Z,99619.91
2022-09-14T14:52:10.397Z,99592.41
2022-09-14T14:54:37.371Z,99587.84
2022-09-14T14:57:04.736Z,99602.19
2022-09-14T14:59:32.206Z,99617.31
2022-09-14T15:01:58.891Z,99626.69
2022-09-14T15:04:26.374Z,99624.72
2022-09-14T15:06:53.668Z,99631.63
2022-09-14T15:09:26.352Z,99631.19
2022-09-14T15:12:13.555Z,99596.00
2022-09-14T15:14:40.398Z,99629.84
2022-09-14T15:17:07.296Z,99628.19
2022-09-14T15:19:33.988Z,99615.06
2022-09-14T15:22:01.773Z,99633.09
2022-09-14T15:24:29.362Z,99633.09
2022-09-14T15:26:56.143Z,99636.34
2022-09-14T15:29:22.952Z,99615.03
2022-09-14T15:31:49.753Z,99634.69
2022-09-14T15:34:16.445Z,99656.78
2022-09-14T15:36:50.523Z,99617.88
2022-09-14T15:39:20.228Z,99621.88
2022-09-14T15:41:47.413Z,99642.22
2022-09-14T15:44:15.719Z,99638.56
2022-09-14T15:46:44.618Z,99636.06
2022-09-14T15:49:13.860Z,99651.22
2022-09-14T15:51:45.179Z,99657.34
2022-09-14T15:54:13.060Z,99645.72
2022-09-14T15:56:39.873Z,99660.38
2022-09-14T15:59:07.004Z,99644.09
2022-09-14T16:01:33.826Z,99660.88
2022-09-14T16:04:05.713Z,99652.97
2022-09-14T16:06:34.726Z,99657.06
2022-09-14T16:09:03.599Z,99643.94
2022-09-14T16:11:31.317Z,99665.09
2022-09-14T16:13:58.287Z,99661.03
2022-09-14T16:16:27.558Z,99661.72
2022-09-14T16:18:54.488Z,99659.94
2022-09-14T16:21:24.019Z,99668.56
2022-09-14T16:23:55.144Z,99672.03
2022-09-14T16:26:25.352Z,99662.56
2022-09-14T16:28:53.109Z,99670.38
2022-09-14T16:31:25.798Z,99662.81
2022-09-14T16:33:55.394Z,99666.84
2022-09-14T16:36:24.395Z,99679.09
2022-09-14T16:38:51.195Z,99681.91
2022-09-14T16:41:18.556Z,99677.31
2022-09-14T16:43:45.497Z,99666.25
2022-09-14T16:46:16.270Z,99674.22
2022-09-14T16:48:50.323Z,99690.13
2022-09-14T16:51:19.707Z,99696.91
2022-09-14T16:53:47.986Z,99680.50
2022-09-14T16:56:19.215Z,99697.22
2022-09-14T16:58:47.958Z,99688.22
2022-09-14T17:01:19.549Z,99689.41
2022-09-14T17:03:48.976Z,99688.97
2022-09-14T17:06:21.234Z,99686.78
2022-09-14T17:08:48.790Z,99700.31
2022-09-14T17:11:16.963Z,99689.22
2022-09-14T17:13:45.079Z,99693.88
2022-09-14T17:16:18.321Z,99681.97
2022-09-14T17:18:48.859Z,99696.19
2022-09-14T17:21:22.277Z,99702.78
2022-09-14T17:23:49.261Z,99694.88
2022-09-14T17:26:19.025Z,99706.63
2022-09-14T17:28:47.521Z,99699.94
2022-09-14T17:31:19.671Z,99677.38
2022-09-14T17:33:47.567Z,99713.91
2022-09-14T17:36:15.561Z,99709.25
2022-09-14T17:38:43.408Z,99705.09
2022-09-14T17:41:13.089Z,99716.53
2022-09-14T17:43:40.624Z,99722.09
2022-09-14T17:46:12.999Z,99723.78
2022-09-14T17:48:41.495Z,99721.69
2022-09-14T17:51:10.493Z,99728.63
2022-09-14T17:53:43.150Z,99715.84
2022-09-14T17:56:13.533Z,99730.59
2022-09-14T17:58:42.052Z,99689.97
2022-09-14T18:01:18.794Z,99732.97
2022-09-14T18:03:51.348Z,99729.59
2022-09-14T18:06:19.226Z,99727.97
2022-09-14T18:08:46.606Z,99741.41
2022-09-14T18:11:17.861Z,99745.47
2022-09-14T18:13:47.031Z,99740.53
2022-09-14T18:16:16.376Z,99734.78
2022-09-14T18:18:43.470Z,99737.34
2022-09-14T18:21:11.324Z,99736.88
2022-09-14T18:23:38.233Z,99733.63
2022-09-14T18:26:06.721Z,99717.31
2022-09-14T18:28:35.039Z,99737.41
2022-09-14T18:31:02.485Z,99750.00
2022-09-14T18:33:29.762Z,99735.13
2022-09-14T18:35:57.127Z,99752.44
2022-09-14T18:38:24.129Z,99744.88
2022-09-14T18:40:51.186Z,99750.19
2022-09-14T18:43:18.212Z,99752.19
2022-09-14T18:45:45.714Z,99763.59
2022-09-14T18:48:13.411Z,99756.41
2022-09-14T18:50:41.476Z,99745.34
2022-09-14T18:53:08.548Z,99760.22
2022-09-14T18:55:35.552Z,99748.25
2022-09-14T18:58:02.609Z,99756.06
2022-09-14T19:00:29.393Z,99774.44
2022-09-14T19:02:57.283Z,99765.47
2022-09-14T19:05:25.556Z,99751.91
2022-09-14T19:07:52.733Z,99760.97
2022-09-14T19:10:19.636Z,99767.94
2022-09-14T19:12:46.544Z,99766.13
2022-09-14T19:15:13.505Z,99768.91
2022-09-14T19:17:40.248Z,99772.56
2022-09-14T19:20:08.569Z,99779.09
2022-09-14T19:22:35.491Z,99773.50
2022-09-14T19:25:02.191Z,99784.25
2022-09-14T19:27:29.094Z,99785.09
2022-09-14T19:29:55.884Z,99771.84
2022-09-14T19:32:22.714Z,99770.34
2022-09-14T19:34:49.802Z,99779.09
2022-09-14T19:37:16.591Z,99764.31
2022-09-14T19:39:43.986Z,99795.47
2022-09-14T19:42:11.181Z,99801.75
2022-09-14T19:44:37.864Z,99791.38
2022-09-14T19:47:04.716Z,99792.88
2022-09-14T19:49:31.505Z,99810.59
2022-09-14T19:51:58.217Z,99803.50
2022-09-14T19:54:25.381Z,99805.69
2022-09-14T19:56:52.332Z,99792.81
2022-09-14T19:59:19.061Z,99798.56
2022-09-14T20:01:46.345Z,99821.53
2022-09-14T20:04:14.278Z,99813.34
2022-09-14T20:06:43.577Z,99811.78
2022-09-14T20:09:12.555Z,99819.66
2022-09-14T20:11:40.858Z,99805.44
2022-09-14T20:14:10.289Z,99764.94
2022-09-14T20:16:40.068Z,99815.41
2022-09-14T20:19:10.619Z,99825.44
2022-09-14T20:21:37.781Z,99830.06
2022-09-14T20:24:21.993Z,99834.25
2022-09-14T20:26:50.592Z,99836.63
2022-09-14T20:29:19.009Z,99839.47
2022-09-14T20:31:46.693Z,99842.91
2022-09-14T20:34:16.496Z,99833.50
2022-09-14T20:36:43.251Z,99857.28
2022-09-14T20:39:10.464Z,99835.88
2022-09-14T20:41:37.594Z,99846.50
2022-09-14T20:44:05.010Z,99855.34
2022-09-14T20:46:35.491Z,99839.03
2022-09-14T20:49:04.484Z,99855.50
2022-09-14T20:51:31.848Z,99859.97
2022-09-14T20:53:58.628Z,99860.28
2022-09-14T20:56:30.068Z,99853.81
2022-09-14T20:58:59.601Z,99867.00
2022-09-14T21:01:28.925Z,99858.78
2022-09-14T21:04:01.286Z,99851.44
2022-09-14T21:06:28.066Z,99860.50
2022-09-14T21:08:55.519Z,99846.28
2022-09-14T21:11:25.076Z,99838.56
2022-09-14T21:13:53.867Z,99861.78
2022-09-14T21:16:22.429Z,99860.09
2022-09-14T21:18:58.421Z,99852.88
2022-09-14T21:21:25.761Z,99858.78
2022-09-14T21:23:53.873Z,99850.09
2022-09-14T21:26:20.767Z,99853.91
2022-09-14T21:28:47.593Z,99811.50
2022-09-14T21:31:17.872Z,99846.22
2022-09-14T21:33:47.358Z,99833.94
2022-09-14T21:36:16.206Z,99872.69
2022-09-14T21:38:43.279Z,99851.44
2022-09-14T21:41:11.694Z,99865.50
2022-09-14T21:43:40.186Z,99860.84
2022-09-14T21:46:08.970Z,99870.91
2022-09-14T21:48:37.047Z,99869.25
2022-09-14T21:51:18.737Z,99860.13
2022-09-14T21:53:57.470Z,99856.81
2022-09-14T21:56:26.890Z,99872.56
2022-09-14T21:58:58.632Z,99846.28
2022-09-14T22:01:26.245Z,99854.53
2022-09-14T22:03:54.294Z,99875.50
2022-09-14T22:06:24.300Z,99872.03
2022-09-14T22:08:52.453Z,99874.06
2022-09-14T22:11:23.387Z,99882.66
2022-09-14T22:13:55.262Z,99884.41
2022-09-14T22:16:23.311Z,99886.66
2022-09-14T22:18:55.896Z,99863.78
2022-09-14T22:21:24.598Z,99869.84
2022-09-14T22:23:56.300Z,99875.22
2022-09-14T22:26:24.126Z,99881.09
2022-09-14T22:28:53.129Z,99877.91
2022-09-14T22:31:22.654Z,99863.25
2022-09-14T22:33:50.468Z,99883.41
2022-09-14T22:36:17.381Z,99892.78
2022-09-14T22:38:44.259Z,99865.84
2022-09-14T22:41:14.116Z,99879.09
2022-09-14T22:43:41.108Z,99883.47
2022-09-14T22:46:09.008Z,99871.66
2022-09-14T22:48:37.139Z,99898.84
2022-09-14T22:51:05.758Z,99877.56
2022-09-14T22:53:34.457Z,99870.13
2022-09-14T22:56:11.229Z,99888.00
2022-09-14T22:58:38.373Z,99894.56
2022-09-14T23:01:10.474Z,99888.19
2022-09-14T23:03:37.377Z,99869.97
2022-09-14T23:06:05.104Z,99887.34
2022-09-14T23:08:32.677Z,99875.44
2022-09-14T23:11:06.842Z,99879.34
2022-09-14T23:13:41.917Z,99888.25
2022-09-14T23:16:20.539Z,99881.84
2022-09-14T23:18:52.449Z,99891.47
2022-09-14T23:21:20.185Z,99882.59
2022-09-14T23:23:54.934Z,99878.09
2022-09-14T23:26:23.127Z,99885.59
2022-09-14T23:28:59.012Z,99900.50
2022-09-14T23:31:26.633Z,99900.50
2022-09-14T23:33:57.179Z,99878.09
2022-09-14T23:36:24.683Z,99899.16
2022-09-14T23:38:52.155Z,99905.28
2022-09-14T23:41:20.726Z,99899.59
2022-09-14T23:43:48.156Z,99902.91
2022-09-14T23:46:15.986Z,99891.81
2022-09-14T23:48:42.930Z,99906.09
2022-09-14T23:51:10.884Z,99901.03
2022-09-14T23:53:38.844Z,99886.66
2022-09-14T23:56:06.623Z,99890.63
2022-09-14T23:58:33.600Z,99905.88
